Time,TemperatureF,DewpointF,PressureIn,WindDirection,WindDirectionDegrees,WindSpeedMPH,WindSpeedGustMPH,Humidity,HourlyPrecipIn,Conditions,Clouds,dailyrainin,SoftwareType,DateUTC
2013-02-22 00:02:00,32.0,29.9,30.12,NNW,337,9.0,28.0,92,0.00,,,0.00,Weather View 32 v70,2013-02-22 05:02:00,
2013-02-22 00:32:00,31.0,28.9,30.12,NE,45,12.0,23.0,92,0.00,,,0.00,Weather View 32 v70,2013-02-22 05:32:00,
2013-02-22 02:32:00,29.0,28.3,30.22,North,360,11.0,19.0,97,0.00,,,0.00,Weather View 32 v70,2013-02-22 07:32:00,
2013-02-22 02:37:00,29.0,28.3,30.22,North,360,11.0,19.0,97,0.00,,,0.00,Weather View 32 v70,2013-02-22 07:37:00,
2013-02-22 03:01:00,29.0,28.3,30.23,NW,315,7.0,19.0,97,0.00,,,0.00,Weather View 32 v70,2013-02-22 08:01:00,
2013-02-22 04:01:00,28.0,27.0,30.25,WNW,292,6.0,15.0,96,0.00,,,0.00,Weather View 32 v70,2013-02-22 09:01:00,
2013-02-22 05:01:00,26.0,26.0,30.29,North,360,6.0,15.0,100,0.00,,,0.00,Weather View 32 v70,2013-02-22 10:01:00,
2013-02-22 05:30:00,24.0,24.0,30.29,NW,315,1.0,15.0,100,0.00,,,0.00,Weather View 32 v70,2013-02-22 10:30:00,
2013-02-22 05:31:00,24.0,24.0,30.29,NW,315,1.0,15.0,100,0.00,,,0.00,Weather View 32 v70,2013-02-22 10:31:00,
2013-02-22 06:01:00,25.0,25.0,30.30,WNW,292,8.0,12.0,100,0.00,,,0.00,Weather View 32 v70,2013-02-22 11:01:00,
2013-02-22 07:00:00,26.0,26.0,30.33,NW,315,5.0,15.0,100,0.00,,,0.00,Weather View 32 v70,2013-02-22 12:00:00,
2013-02-22 07:32:00,27.0,25.2,30.35,NW,315,6.0,15.0,93,0.00,,,0.00,Weather View 32 v70,2013-02-22 12:32:00,
2013-02-22 08:02:00,29.0,25.1,30.36,North,360,7.0,16.0,85,0.00,,,0.00,Weather View 32 v70,2013-02-22 13:02:00,
2013-02-22 08:32:00,30.0,24.0,30.36,NNE,22,7.0,20.0,78,0.00,,,0.00,Weather View 32 v70,2013-02-22 13:32:00,
2013-02-22 09:04:00,30.0,23.4,30.38,NNE,22,12.0,22.0,76,0.00,,,0.00,Weather View 32 v70,2013-02-22 14:04:00,
2013-02-22 09:32:00,31.0,23.4,30.39,NNE,22,12.0,22.0,73,0.00,,,0.00,Weather View 32 v70,2013-02-22 14:32:00,
2013-02-22 10:05:00,31.0,23.0,30.39,NNW,337,15.0,22.0,72,0.00,,,0.00,Weather View 32 v70,2013-02-22 15:05:00,
2013-02-22 10:32:00,33.0,22.9,30.37,NNW,337,11.0,19.0,66,0.00,,,0.00,Weather View 32 v70,2013-02-22 15:32:00,
2013-02-22 11:02:00,34.0,22.3,30.37,NE,45,6.0,18.0,62,0.00,,,0.00,Weather View 32 v70,2013-02-22 16:02:00,
2013-02-22 11:08:00,34.0,22.3,30.37,NE,45,6.0,18.0,62,0.00,,,0.00,Weather View 32 v70,2013-02-22 16:08:00,
2013-02-22 11:31:00,35.0,20.9,30.36,NNW,337,15.0,24.0,56,0.00,,,0.00,Weather View 32 v70,2013-02-22 16:31:00,
2013-02-22 12:00:00,35.0,21.3,30.35,North,360,13.0,24.0,57,0.00,,,0.00,Weather View 32 v70,2013-02-22 17:00:00,
2013-02-22 12:02:00,35.0,21.3,30.35,North,360,13.0,24.0,57,0.00,,,0.00,Weather View 32 v70,2013-02-22 17:02:00,
2013-02-22 12:31:00,36.0,21.0,30.33,NNE,22,12.0,20.0,54,0.00,,,0.00,Weather View 32 v70,2013-02-22 17:31:00,
2013-02-22 13:00:00,37.0,21.0,30.33,NNW,337,8.0,19.0,52,0.00,,,0.00,Weather View 32 v70,2013-02-22 18:00:00,
2013-02-22 13:02:00,37.0,21.0,30.33,NNW,337,8.0,19.0,52,0.00,,,0.00,Weather View 32 v70,2013-02-22 18:02:00,
2013-02-22 14:00:00,37.0,20.5,30.31,NNE,22,18.0,20.0,51,0.00,,,0.00,Weather View 32 v70,2013-02-22 19:00:00,
2013-02-22 14:01:00,37.0,20.5,30.31,NNE,22,18.0,20.0,51,0.00,,,0.00,Weather View 32 v70,2013-02-22 19:01:00,
2013-02-22 14:31:00,37.0,20.5,30.32,NNE,22,12.0,20.0,51,0.00,,,0.00,Weather View 32 v70,2013-02-22 19:31:00,
2013-02-22 15:00:00,37.0,20.1,30.31,North,360,6.0,19.0,50,0.00,,,0.00,Weather View 32 v70,2013-02-22 20:00:00,
2013-02-22 15:02:00,37.0,20.1,30.31,North,360,6.0,19.0,50,0.00,,,0.00,Weather View 32 v70,2013-02-22 20:02:00,
2013-02-22 15:30:00,35.0,20.9,30.32,NNW,337,9.0,17.0,56,0.00,,,0.00,Weather View 32 v70,2013-02-22 20:30:00,
2013-02-22 16:02:00,36.0,21.0,30.33,NNW,337,9.0,17.0,54,0.00,,,0.00,Weather View 32 v70,2013-02-22 21:02:00,
2013-02-22 16:32:00,36.0,21.0,30.33,NNW,337,8.0,14.0,54,0.00,,,0.00,Weather View 32 v70,2013-02-22 21:32:00,
2013-02-22 17:04:00,33.0,21.4,30.33,NNW,337,4.0,14.0,62,0.00,,,0.00,Weather View 32 v70,2013-02-22 22:04:00,
2013-02-22 17:33:00,30.0,22.1,30.35,North,360,3.0,13.0,72,0.00,,,0.00,Weather View 32 v70,2013-02-22 22:33:00,
2013-02-22 18:01:00,29.0,22.7,30.36,NNE,22,3.0,9.0,77,0.00,,,0.00,Weather View 32 v70,2013-02-22 23:01:00,
2013-02-22 18:31:00,28.0,23.2,30.37,NNE,22,6.0,9.0,82,0.00,,,0.00,Weather View 32 v70,2013-02-22 23:31:00,
2013-02-22 19:01:00,27.0,25.0,30.38,North,360,6.0,9.0,92,0.00,,,0.00,Weather View 32 v70,2013-02-23 00:01:00,
2013-02-22 19:32:00,27.0,23.9,30.38,North,360,6.0,10.0,88,0.00,,,0.00,Weather View 32 v70,2013-02-23 00:32:00,
2013-02-22 20:01:00,27.0,25.0,30.38,NNE,22,9.0,12.0,92,0.00,,,0.00,Weather View 32 v70,2013-02-23 01:01:00,
2013-02-22 20:31:00,26.0,24.5,30.39,NNW,337,3.0,12.0,94,0.00,,,0.00,Weather View 32 v70,2013-02-23 01:31:00,
2013-02-22 21:02:00,24.0,23.8,30.41,NNW,337,4.0,11.0,99,0.00,,,0.00,Weather View 32 v70,2013-02-23 02:02:00,
2013-02-22 21:32:00,24.0,24.0,30.41,NNW,337,5.0,8.0,100,0.00,,,0.00,Weather View 32 v70,2013-02-23 02:32:00,
2013-02-22 22:01:00,24.0,24.0,30.41,NW,315,5.0,8.0,100,0.00,,,0.00,Weather View 32 v70,2013-02-23 03:01:00,
2013-02-22 22:31:00,23.0,23.0,30.41,NNW,337,6.0,8.0,100,0.00,,,0.00,Weather View 32 v70,2013-02-23 03:31:00,
2013-02-22 23:01:00,24.0,24.0,30.41,North,360,7.0,9.0,100,0.00,,,0.00,Weather View 32 v70,2013-02-23 04:01:00,
2013-02-22 23:30:00,24.0,24.0,30.40,NNE,22,6.0,10.0,100,0.00,,,0.00,Weather View 32 v70,2013-02-23 04:30:00,
2013-02-22 23:36:00,24.0,24.0,30.40,NNE,22,6.0,10.0,100,0.00,,,0.00,Weather View 32 v70,2013-02-23 04:36:00,